Time;durP1;ratioP1;P1;durP2;ratioP2;P2;SDS_P1;SDS_P2;PMS_P1;PMS_P2;Temp;Humidity;BMP_temperature;BMP_pressure;BME280_temperature;BME280_humidity;BME280_pressure;Samples;Min_cycle;Max_cycle;Signal;HPM_P1;HPM_P2
2022/07/03 08:27:39;;;;;;;2.50;0.63;;;28.90;94.00;;;;;;2861813;23;20332;-73
2022/07/03 08:30:08;;;;;;;1.33;0.60;;;28.10;95.30;;;;;;4915982;29;20213;-67
2022/07/03 08:32:34;;;;;;;1.15;0.60;;;28.00;95.10;;;;;;4918526;29;20221;-68
2022/07/03 08:35:01;;;;;;;0.80;0.60;;;28.10;94.90;;;;;;4918383;29;20241;-69
2022/07/03 08:37:28;;;;;;;1.27;0.75;;;27.90;94.80;;;;;;4918432;29;20210;-72
2022/07/03 08:39:55;;;;;;;1.67;0.60;;;27.90;95.30;;;;;;4918197;29;20220;-68
2022/07/03 08:42:24;;;;;;;1.20;0.98;;;28.70;94.50;;;;;;4912020;29;20213;-75
2022/07/03 08:44:54;;;;;;;0.85;0.60;;;28.50;94.60;;;;;;4906867;29;20610;-72
2022/07/03 08:47:22;;;;;;;0.65;0.50;;;28.70;94.50;;;;;;4908646;29;20580;-71
2022/07/03 08:49:50;;;;;;;1.00;0.57;;;28.40;95.00;;;;;;4902465;29;20218;-74
2022/07/03 08:52:18;;;;;;;0.50;0.40;;;28.30;94.70;;;;;;4907190;29;20550;-75
2022/07/03 08:54:44;;;;;;;1.42;0.47;;;28.30;95.00;;;;;;4916437;29;20639;-72
2022/07/03 08:57:12;;;;;;;0.70;0.50;;;28.20;95.10;;;;;;4916610;29;20206;-69
2022/07/03 08:59:40;;;;;;;1.65;0.52;;;28.30;94.60;;;;;;4916239;29;20214;-72
2022/07/03 09:02:09;;;;;;;0.98;0.68;;;27.80;95.00;;;;;;4923926;29;20656;-72
2022/07/03 09:04:36;;;;;;;1.65;0.50;;;26.90;95.80;;;;;;4926245;29;20304;-70
2022/07/03 09:07:03;;;;;;;1.35;0.50;;;26.50;96.40;;;;;;4921987;29;20560;-70
2022/07/03 09:09:30;;;;;;;1.73;0.40;;;26.10;97.00;;;;;;4917834;29;20209;-69
2022/07/03 09:11:57;;;;;;;0.73;0.43;;;26.50;96.90;;;;;;4916876;29;20216;-76
2022/07/03 09:14:23;;;;;;;2.40;1.10;;;25.80;97.30;;;;;;4917048;29;20217;-75
2022/07/03 09:16:52;;;;;;;0.93;0.50;;;25.30;98.10;;;;;;4928741;29;20209;-69
2022/07/03 09:19:40;;;;;;;0.90;0.50;;;25.20;98.50;;;;;;4935738;29;20267;-71
2022/07/03 09:22:22;;;;;;;1.02;0.57;;;25.00;99.00;;;;;;4927391;29;20213;-69
2022/07/03 09:24:49;;;;;;;1.00;0.43;;;25.40;98.50;;;;;;4916272;29;20256;-70
2022/07/03 09:27:18;;;;;;;1.02;0.50;;;25.60;98.30;;;;;;4915848;29;20209;-68
2022/07/03 09:30:01;;;;;;;1.30;0.40;;;26.20;98.70;;;;;;4915840;29;20666;-71
2022/07/03 09:32:34;;;;;;;1.20;0.50;;;27.10;98.20;;;;;;4914121;29;20664;-72
2022/07/03 09:35:17;;;;;;;0.50;0.30;;;27.30;96.90;;;;;;4916039;29;20296;-73
2022/07/03 09:37:50;;;;;;;0.60;0.40;;;27.60;95.60;;;;;;4916051;29;20665;-68
2022/07/03 09:40:17;;;;;;;0.80;0.40;;;27.40;95.90;;;;;;4915651;29;20205;-69
2022/07/03 09:42:58;;;;;;;0.50;0.40;;;26.20;97.10;;;;;;4915441;29;20558;-67
2022/07/03 09:45:25;;;;;;;0.70;0.40;;;25.80;97.50;;;;;;4898377;29;20238;-70
2022/07/03 09:47:52;;;;;;;1.77;0.50;;;26.00;96.10;;;;;;4915961;29;20209;-69
2022/07/03 09:50:20;;;;;;;1.02;0.30;;;25.80;97.20;;;;;;4915886;29;20236;-78
2022/07/03 09:52:48;;;;;;;0.40;0.30;;;26.20;96.50;;;;;;4915823;29;20569;-73
2022/07/03 09:55:18;;;;;;;0.68;0.35;;;26.40;96.90;;;;;;4915431;29;20586;-68
2022/07/03 09:57:47;;;;;;;1.80;0.40;;;26.10;96.90;;;;;;4915746;29;20217;-71
2022/07/03 10:00:16;;;;;;;1.95;0.30;;;25.90;96.90;;;;;;4915535;29;20728;-73
2022/07/03 10:02:56;;;;;;;2.40;0.38;;;25.40;97.00;;;;;;4915587;29;20206;-68
2022/07/03 10:05:26;;;;;;;0.73;0.30;;;25.10;97.00;;;;;;4916104;29;20244;-72
2022/07/03 10:07:55;;;;;;;1.05;0.40;;;24.80;97.50;;;;;;4924455;29;20657;-67
2022/07/03 10:10:24;;;;;;;0.82;0.38;;;24.70;97.90;;;;;;4914883;29;20661;-69
2022/07/03 10:12:52;;;;;;;0.70;0.35;;;24.70;98.90;;;;;;4915137;29;20282;-72
2022/07/03 10:15:19;;;;;;;1.17;0.40;;;24.90;98.10;;;;;;4915006;29;20289;-71
2022/07/03 10:17:49;;;;;;;0.38;0.30;;;25.30;97.40;;;;;;4915486;29;20568;-74
2022/07/03 10:20:26;;;;;;;0.95;0.40;;;25.10;98.10;;;;;;4915691;29;20249;-70
2022/07/03 10:22:53;;;;;;;0.65;0.32;;;25.10;98.00;;;;;;4918855;29;20768;-70
2022/07/03 10:25:20;;;;;;;1.30;0.40;;;24.70;96.80;;;;;;4918344;29;20336;-79
2022/07/03 10:27:48;;;;;;;0.82;0.30;;;24.40;97.70;;;;;;4919750;29;20295;-74
2022/07/03 10:30:16;;;;;;;1.05;0.30;;;24.40;98.80;;;;;;4919684;29;20220;-72
2022/07/03 10:32:45;;;;;;;0.40;0.30;;;24.20;98.60;;;;;;4919818;29;20664;-74
2022/07/03 10:35:14;;;;;;;0.38;0.20;;;24.20;98.40;;;;;;4919494;29;20233;-73
2022/07/03 10:37:53;;;;;;;1.00;0.20;;;23.90;97.70;;;;;;4919715;29;20284;-69
2022/07/03 10:46:13;;;;;;;1.48;0.30;;;23.80;97.10;;;;;;4919404;29;20708;-73
2022/07/03 10:49:08;;;;;;;0.30;0.25;;;23.70;96.40;;;;;;4919633;29;20220;-73
2022/07/03 10:51:53;;;;;;;0.38;0.30;;;23.90;96.10;;;;;;4885804;29;20304;-73
2022/07/03 10:54:23;;;;;;;0.75;0.40;;;24.30;97.10;;;;;;4919535;29;20216;-76
2022/07/03 10:57:10;;;;;;;0.50;0.30;;;24.70;96.50;;;;;;4920050;29;20220;-75
2022/07/03 11:00:14;;;;;;;3.03;0.40;;;25.20;97.00;;;;;;4919821;29;20244;-73
2022/07/03 11:02:41;;;;;;;1.67;0.35;;;25.30;95.40;;;;;;4890068;29;20215;-73
2022/07/03 11:05:13;;;;;;;0.47;0.30;;;25.00;95.80;;;;;;4917090;29;20696;-74
2022/07/03 11:08:04;;;;;;;1.00;0.40;;;25.20;96.50;;;;;;4924752;29;20549;-72
2022/07/03 11:10:35;;;;;;;2.67;0.40;;;25.10;95.50;;;;;;4938639;29;20664;-73
2022/07/03 11:13:04;;;;;;;0.30;0.30;;;24.60;95.90;;;;;;4938553;29;20572;-73
2022/07/03 11:15:32;;;;;;;0.82;0.40;;;24.40;96.40;;;;;;4938470;29;20583;-73
2022/07/03 11:18:09;;;;;;;1.17;0.50;;;24.30;96.40;;;;;;4938623;29;20568;-73
2022/07/03 11:20:38;;;;;;;0.80;0.40;;;24.40;97.90;;;;;;4939154;29;20216;-73
2022/07/03 11:23:17;;;;;;;0.50;0.40;;;24.60;97.30;;;;;;4938617;29;20211;-72
2022/07/03 11:25:46;;;;;;;2.08;0.32;;;24.30;95.60;;;;;;4938671;29;20244;-72
2022/07/03 11:28:47;;;;;;;1.35;0.40;;;24.40;95.20;;;;;;4938542;29;20223;-73
2022/07/03 11:31:18;;;;;;;0.73;0.30;;;24.10;94.90;;;;;;4938311;29;20595;-73
2022/07/03 11:33:45;;;;;;;0.30;0.25;;;24.00;95.80;;;;;;4937669;29;20212;-72
2022/07/03 11:36:12;;;;;;;0.95;0.30;;;24.10;95.70;;;;;;4938206;29;20241;-73
2022/07/03 11:38:39;;;;;;;0.82;0.40;;;24.10;96.40;;;;;;4938325;29;20295;-71
2022/07/03 11:41:11;;;;;;;0.50;0.30;;;23.90;96.20;;;;;;4938358;29;20209;-72
2022/07/03 11:43:38;;;;;;;1.48;0.40;;;23.90;95.50;;;;;;4938066;29;20223;-72
2022/07/03 11:46:05;;;;;;;1.70;0.40;;;24.00;95.80;;;;;;4938082;29;20237;-72
2022/07/03 11:48:32;;;;;;;0.45;0.30;;;24.20;96.20;;;;;;4938088;29;20596;-72
2022/07/03 11:51:01;;;;;;;0.68;0.30;;;24.40;95.60;;;;;;4938221;29;20683;-68
2022/07/03 11:53:30;;;;;;;0.40;0.30;;;24.70;95.60;;;;;;4937863;29;20208;-69
2022/07/03 11:55:59;;;;;;;0.50;0.30;;;24.90;95.40;;;;;;4937533;29;20315;-67
2022/07/03 11:58:41;;;;;;;0.93;0.30;;;24.80;95.00;;;;;;4938156;29;20544;-68
2022/07/03 12:01:10;;;;;;;0.43;0.30;;;24.80;95.20;;;;;;4938058;29;20284;-70
2022/07/03 12:03:36;;;;;;;0.40;0.30;;;24.70;95.10;;;;;;4938078;29;20213;-72
2022/07/03 12:06:04;;;;;;;0.30;0.30;;;24.70;94.80;;;;;;4937580;29;20241;-69
2022/07/03 12:08:32;;;;;;;0.32;0.30;;;24.60;95.30;;;;;;4937584;29;20212;-72
2022/07/03 12:11:02;;;;;;;0.45;0.30;;;24.40;94.40;;;;;;4937732;29;20231;-72
2022/07/03 12:13:32;;;;;;;0.30;0.30;;;24.40;94.80;;;;;;4937669;29;20212;-71
2022/07/03 12:16:03;;;;;;;0.85;0.30;;;24.40;95.30;;;;;;4937537;29;20237;-71
2022/07/03 12:18:51;;;;;;;1.08;0.50;;;24.30;95.10;;;;;;4937748;29;20261;-72
2022/07/03 12:21:18;;;;;;;1.63;0.57;;;24.30;94.90;;;;;;4937927;29;20272;-72
2022/07/03 12:23:48;;;;;;;0.50;0.30;;;24.20;94.40;;;;;;4937390;29;20659;-70
2022/07/03 12:26:27;;;;;;;0.30;0.30;;;24.20;94.50;;;;;;4937108;29;20707;-72
2022/07/03 12:28:56;;;;;;;0.98;0.35;;;24.40;94.60;;;;;;4937158;29;20220;-68
2022/07/03 12:31:23;;;;;;;0.68;0.30;;;24.40;94.70;;;;;;4937839;29;20215;-72
2022/07/03 12:33:50;;;;;;;1.45;0.30;;;24.40;93.60;;;;;;4937419;29;20213;-71
2022/07/03 12:36:17;;;;;;;0.77;0.30;;;24.30;94.40;;;;;;4937204;29;20225;-69
2022/07/03 12:38:48;;;;;;;2.75;0.45;;;24.40;94.10;;;;;;4937102;29;20209;-71
2022/07/03 12:41:16;;;;;;;0.75;0.20;;;24.70;93.30;;;;;;4937254;29;20212;-71
2022/07/03 12:43:47;;;;;;;0.55;0.30;;;24.60;92.80;;;;;;4937000;29;20213;-73
2022/07/03 12:46:19;;;;;;;0.45;0.35;;;24.50;92.60;;;;;;4935978;29;20236;-71
2022/07/03 12:48:47;;;;;;;1.80;0.35;;;24.20;93.30;;;;;;4937173;29;20295;-70
2022/07/03 12:51:14;;;;;;;0.98;0.50;;;24.40;92.80;;;;;;4937132;29;20215;-68
2022/07/03 12:53:41;;;;;;;0.70;0.30;;;24.40;93.50;;;;;;4937026;29;20220;-73
2022/07/03 12:56:10;;;;;;;0.88;0.25;;;24.50;92.10;;;;;;4921256;29;20650;-71
2022/07/03 13:01:34;;;;;;;0.85;0.40;;;24.90;92.20;;;;;;4917929;29;20205;-72
2022/07/03 13:04:01;;;;;;;1.67;0.30;;;24.90;92.00;;;;;;4898612;29;20274;-72
2022/07/03 13:06:28;;;;;;;1.15;0.25;;;24.80;92.90;;;;;;4907869;29;20265;-72
2022/07/03 13:08:56;;;;;;;0.65;0.30;;;24.60;93.20;;;;;;4917642;29;20669;-75
2022/07/03 13:11:27;;;;;;;0.77;0.30;;;24.50;92.60;;;;;;4917561;29;20300;-72
2022/07/03 13:13:55;;;;;;;1.85;0.40;;;24.40;93.70;;;;;;4917099;29;20745;-72
2022/07/03 13:16:25;;;;;;;0.73;0.40;;;24.40;93.10;;;;;;4916815;29;20629;-69
2022/07/03 13:19:00;;;;;;;1.10;0.28;;;24.70;93.40;;;;;;4917303;29;20218;-71
2022/07/03 13:21:27;;;;;;;0.60;0.35;;;24.80;93.40;;;;;;4917242;29;20209;-70
2022/07/03 13:23:54;;;;;;;1.83;0.32;;;24.90;93.80;;;;;;4917139;29;20216;-72
2022/07/03 13:26:21;;;;;;;1.08;0.40;;;24.90;93.10;;;;;;4924661;29;20327;-72
2022/07/03 13:28:48;;;;;;;0.60;0.30;;;24.90;93.20;;;;;;4936233;29;20216;-70
2022/07/03 13:31:15;;;;;;;1.23;0.30;;;24.80;93.10;;;;;;4935704;29;20304;-72
2022/07/03 13:33:42;;;;;;;0.50;0.30;;;24.90;93.60;;;;;;4936118;29;20299;-72
2022/07/03 13:36:10;;;;;;;0.25;0.22;;;25.00;93.10;;;;;;4929147;29;20240;-72
2022/07/03 13:38:37;;;;;;;2.25;0.40;;;24.90;92.50;;;;;;4916993;29;20671;-72
2022/07/03 13:41:04;;;;;;;0.77;0.30;;;24.70;92.50;;;;;;4917036;29;20756;-72
2022/07/03 13:43:30;;;;;;;0.47;0.22;;;24.70;93.70;;;;;;4917099;29;20287;-71
2022/07/03 13:45:57;;;;;;;0.30;0.30;;;24.50;92.70;;;;;;4916536;29;20726;-73
2022/07/03 13:48:24;;;;;;;0.65;0.30;;;24.40;92.80;;;;;;4916932;29;20218;-73
2022/07/03 13:50:51;;;;;;;1.50;0.30;;;24.30;94.10;;;;;;4917265;29;20208;-72
2022/07/03 13:53:19;;;;;;;0.70;0.50;;;24.50;93.40;;;;;;4921094;29;20295;-71
2022/07/03 13:55:46;;;;;;;1.20;0.40;;;24.50;93.10;;;;;;4931835;29;20285;-73
2022/07/03 13:58:16;;;;;;;0.93;0.40;;;24.60;93.70;;;;;;4916545;29;20669;-73
2022/07/03 14:00:43;;;;;;;2.42;0.40;;;24.50;93.50;;;;;;4916840;29;20216;-73
2022/07/03 14:03:10;;;;;;;0.45;0.30;;;24.70;93.40;;;;;;4916973;29;20216;-73
2022/07/03 14:05:36;;;;;;;1.33;0.30;;;24.80;93.40;;;;;;4919475;29;20244;-73
2022/07/03 14:08:04;;;;;;;0.70;0.47;;;24.90;93.10;;;;;;4935822;29;20209;-74
2022/07/03 14:10:32;;;;;;;0.73;0.30;;;24.90;92.90;;;;;;4935652;29;20209;-74
2022/07/03 14:12:59;;;;;;;2.05;0.50;;;25.00;93.30;;;;;;4935864;29;20304;-75
2022/07/03 14:15:25;;;;;;;1.38;0.45;;;25.20;93.60;;;;;;4934159;29;20246;-72
2022/07/03 14:17:52;;;;;;;1.20;0.30;;;25.10;92.80;;;;;;4917089;29;20219;-76
2022/07/03 14:20:19;;;;;;;0.40;0.22;;;25.10;92.80;;;;;;4916921;29;20288;-71
2022/07/03 14:22:46;;;;;;;0.60;0.30;;;24.80;93.50;;;;;;4932374;29;20755;-71
2022/07/03 14:25:13;;;;;;;1.05;0.30;;;24.70;92.50;;;;;;4941677;23;20233;-73
2022/07/03 14:33:10;;;;;;;0.50;0.30;;;24.50;92.60;;;;;;4912830;29;20260;-74
2022/07/03 14:35:37;;;;;;;0.68;0.30;;;24.50;93.10;;;;;;4916365;29;20592;-74
2022/07/03 14:38:04;;;;;;;3.08;0.40;;;24.50;93.10;;;;;;4916454;29;20303;-74
2022/07/03 14:40:31;;;;;;;0.35;0.30;;;24.60;93.20;;;;;;4916429;29;20245;-74
2022/07/03 14:42:59;;;;;;;0.88;0.32;;;24.50;92.40;;;;;;4916636;29;20214;-75
2022/07/03 14:45:26;;;;;;;0.32;0.30;;;24.40;92.90;;;;;;4916097;29;20241;-74
2022/07/03 14:47:53;;;;;;;2.03;0.30;;;24.40;94.50;;;;;;4916375;29;20669;-74
